Time;durP1;ratioP1;P1;durP2;ratioP2;P2;SDS_P1;SDS_P2;PMS_P1;PMS_P2;Temp;Humidity;BMP_temperature;BMP_pressure;BME280_temperature;BME280_humidity;BME280_pressure;Samples;Min_cycle;Max_cycle;Signal;HPM_P1;HPM_P2
2023/03/23 00:00:09;;;;;;;25.30;20.73;;;13.40;78.20;;;;;;6186048;23;20437;-81
2023/03/23 00:02:37;;;;;;;25.27;20.73;;;13.40;78.20;;;;;;6210204;22;20379;-83
2023/03/23 00:05:06;;;;;;;23.67;19.40;;;13.40;77.90;;;;;;6186057;23;20370;-83
2023/03/23 00:07:32;;;;;;;24.02;19.90;;;13.40;77.70;;;;;;6185315;22;20685;-82
2023/03/23 00:09:58;;;;;;;25.50;20.35;;;13.40;78.30;;;;;;6185793;23;20367;-82
2023/03/23 00:12:32;;;;;;;29.13;20.75;;;13.40;77.70;;;;;;6211484;23;20370;-82
2023/03/23 00:15:12;;;;;;;25.60;19.73;;;13.40;77.10;;;;;;6184677;23;20384;-82
2023/03/23 00:17:40;;;;;;;24.45;18.52;;;13.50;76.20;;;;;;6185358;22;20371;-82
2023/03/23 00:20:07;;;;;;;25.25;19.77;;;13.60;75.70;;;;;;6186170;23;20369;-82
2023/03/23 00:22:37;;;;;;;24.90;19.83;;;13.60;75.60;;;;;;6186251;23;20851;-82
2023/03/23 00:25:05;;;;;;;21.60;18.60;;;13.60;75.80;;;;;;6185055;23;20463;-82
2023/03/23 00:27:30;;;;;;;24.02;19.42;;;13.50;76.30;;;;;;6185996;23;20355;-82
2023/03/23 00:29:56;;;;;;;23.05;18.88;;;13.50;76.90;;;;;;6185012;22;20739;-82
2023/03/23 00:32:27;;;;;;;22.77;18.63;;;13.50;76.70;;;;;;6185794;23;20685;-82
2023/03/23 00:34:53;;;;;;;24.90;19.42;;;13.40;77.50;;;;;;6160856;22;20359;-82
2023/03/23 00:37:19;;;;;;;23.90;19.10;;;13.40;77.60;;;;;;6185455;23;20689;-81
2023/03/23 00:39:46;;;;;;;21.75;19.17;;;13.40;77.90;;;;;;6184419;22;20410;-82
2023/03/23 00:42:14;;;;;;;22.70;19.00;;;13.30;77.70;;;;;;6185867;23;20373;-81
2023/03/23 00:44:39;;;;;;;22.65;18.42;;;13.30;78.00;;;;;;6184486;22;20894;-81
2023/03/23 00:47:07;;;;;;;24.40;20.17;;;13.40;77.00;;;;;;6185736;23;20370;-83
2023/03/23 00:49:34;;;;;;;25.40;19.42;;;13.40;76.80;;;;;;6185995;23;20904;-83
2023/03/23 00:52:01;;;;;;;24.67;19.80;;;13.40;76.50;;;;;;6184721;22;20394;-82
2023/03/23 00:54:27;;;;;;;23.35;19.17;;;13.50;76.00;;;;;;6185861;23;20371;-83
2023/03/23 00:56:53;;;;;;;21.23;17.70;;;13.50;76.30;;;;;;6184390;22;20927;-83
2023/03/23 00:59:20;;;;;;;21.42;18.65;;;13.50;76.30;;;;;;6185584;23;20387;-82
2023/03/23 01:01:46;;;;;;;22.27;17.80;;;13.50;75.50;;;;;;6184124;22;20370;-81
2023/03/23 01:04:12;;;;;;;23.52;18.92;;;13.60;74.70;;;;;;6185949;23;20892;-81
2023/03/23 01:06:40;;;;;;;24.08;19.48;;;13.60;74.60;;;;;;6185587;23;20444;-82
2023/03/23 01:09:14;;;;;;;19.88;17.63;;;13.70;73.90;;;;;;6185294;23;20366;-82
2023/03/23 01:11:41;;;;;;;22.17;18.38;;;13.70;73.70;;;;;;6185422;23;20375;-81
2023/03/23 01:14:08;;;;;;;24.10;18.95;;;13.70;74.70;;;;;;6184940;23;20473;-82
2023/03/23 01:16:34;;;;;;;23.67;20.10;;;13.70;74.20;;;;;;6185695;23;20864;-81
2023/03/23 01:19:00;;;;;;;21.98;18.60;;;13.70;73.90;;;;;;6184756;22;20378;-82
2023/03/23 01:21:26;;;;;;;23.05;18.05;;;13.70;73.50;;;;;;6185289;23;20378;-83
2023/03/23 01:23:52;;;;;;;22.83;17.85;;;13.60;73.50;;;;;;6184982;22;20821;-83
2023/03/23 01:26:23;;;;;;;22.73;18.42;;;13.60;73.30;;;;;;6185402;23;20374;-83
2023/03/23 01:28:49;;;;;;;21.70;18.40;;;13.70;72.10;;;;;;6184544;22;20955;-82
2023/03/23 01:31:24;;;;;;;20.52;17.33;;;13.80;71.10;;;;;;6186127;23;20403;-82
2023/03/23 01:33:50;;;;;;;20.13;17.92;;;13.80;71.30;;;;;;6209452;22;20378;-82
2023/03/23 01:36:20;;;;;;;23.83;18.60;;;13.80;71.00;;;;;;6185838;23;20382;-82
2023/03/23 01:38:47;;;;;;;22.88;18.30;;;13.80;71.10;;;;;;6184822;22;20394;-81
2023/03/23 01:41:14;;;;;;;21.92;18.00;;;13.90;70.60;;;;;;6185985;23;20411;-81
2023/03/23 01:44:06;;;;;;;21.90;17.83;;;13.90;70.00;;;;;;6186421;23;20370;-82
2023/03/23 01:46:36;;;;;;;20.23;16.98;;;13.90;70.10;;;;;;6212347;23;20370;-82
2023/03/23 01:49:13;;;;;;;21.00;17.77;;;13.80;70.50;;;;;;6187613;23;20371;-81
2023/03/23 01:51:50;;;;;;;20.95;17.30;;;13.80;69.90;;;;;;6211433;23;20363;-82
2023/03/23 01:54:20;;;;;;;20.65;17.30;;;13.80;70.40;;;;;;6211365;22;20433;-81
2023/03/23 01:57:09;;;;;;;21.45;17.63;;;13.80;70.40;;;;;;6186727;23;20375;-82
2023/03/23 01:59:36;;;;;;;21.77;17.48;;;13.80;70.50;;;;;;6185199;22;20790;-81
2023/03/23 02:02:02;;;;;;;20.55;17.25;;;13.80;69.40;;;;;;6186550;23;20765;-81
